Accueil
METAR-TAF:

METAR-TAF

Aéroports :

Brighton, Angleterre

Aéroport de Shoreham

latitude: 50-50N, longitude: 000-17W, altitude: 2 m

Observation

Le bulletin a été fait il y a 4 heures et 49 minutes, à 19:50 UTC
Vent 5 kt de nord/nord-est
Température 5°C
Humidité 81%
Pression 1025 hPa
Visibilité: 5000 m
brume sèche

METAR: EGKA 211950Z 03005KT 5000 HZ NSC 05/02 Q1025

Heure: 00:39 (00:39 UTC)

Prévision

Le bulletin a été fait il y a 7 heures et 39 minutes, à 17:00 UTC
Prévision valable du 21 à 18 UTC au 21 à 20 UTC
Vent 8 kt de nord
Visibilité 10 km ou plus
Quelques nuages à une hauteur de 2500 ft
Nuages épars à une hauteur de 3500 ft
Probabilité 40% :
Temporairement
du 21 à 18 UTC au 21 à 20 UTC
Visibilité: 8000 m

TAF: EGKA 211700Z 2118/2120 01008KT 9999 FEW025 SCT035 PROB40 TEMPO 2118/2120 8000

Observations et prévisions météorologiques de plus de 4000 aéroports (messages METAR et TAF).

Les stations disponibles sont représentées par des disques jaunes et rouges sur la carte.

Passer la souris dessus pour voir le nom de la station.

Cliquer dessus pour voir les observations et prévisions météorologiques.

Pour changer de carte: cliquez sur les boutons verts avec une croix noire pour zoomer, sur le bouton vert avec un tiret pour effectuer un zoom arrière, ou sur les flèches vertes pour les cartes adjacentes.


METAR-TAF: